Time;durP1;ratioP1;P1;durP2;ratioP2;P2;SDS_P1;SDS_P2;PMS_P1;PMS_P2;Temp;Humidity;BMP_temperature;BMP_pressure;BME280_temperature;BME280_humidity;BME280_pressure;Samples;Min_cycle;Max_cycle;Signal;HPM_P1;HPM_P2
2023/09/20 00:01:04;;;;;;;1055.47;895.28;;;16.60;99.90;;;;;;4893638;29;20068;-83
2023/09/20 00:03:31;;;;;;;1024.53;888.88;;;16.60;99.90;;;;;;4892209;29;20184;-82
2023/09/20 00:05:59;;;;;;;1097.22;920.03;;;16.50;99.90;;;;;;4892725;29;20442;-82
2023/09/20 00:08:25;;;;;;;1066.00;895.90;;;16.60;99.90;;;;;;4893731;29;20408;-82
2023/09/20 00:10:51;;;;;;;1143.18;924.30;;;16.60;99.90;;;;;;4890732;29;20511;-81
2023/09/20 00:13:16;;;;;;;1048.32;901.88;;;16.60;99.90;;;;;;4892992;29;20071;-82
2023/09/20 00:15:45;;;;;;;1116.68;906.65;;;16.60;99.90;;;;;;4879591;29;20508;-82
2023/09/20 00:18:11;;;;;;;1147.38;930.67;;;16.60;99.90;;;;;;4903006;29;20071;-83
2023/09/20 00:20:37;;;;;;;1209.70;956.15;;;16.60;99.90;;;;;;4908093;29;20060;-82
2023/09/20 00:23:04;;;;;;;1129.38;926.78;;;16.60;99.90;;;;;;4892840;29;20054;-82
2023/09/20 00:25:29;;;;;;;1217.80;951.47;;;16.60;99.90;;;;;;4897787;29;20488;-82
2023/09/20 00:27:55;;;;;;;1243.45;952.13;;;16.50;99.90;;;;;;4897524;29;20508;-81
2023/09/20 00:30:21;;;;;;;1231.05;950.33;;;16.50;99.90;;;;;;4894782;29;20507;-82
2023/09/20 00:32:47;;;;;;;1108.90;919.78;;;16.50;99.90;;;;;;4893287;29;20504;-81
2023/09/20 00:35:19;;;;;;;1223.22;946.45;;;16.50;99.90;;;;;;4894262;29;20055;-82
2023/09/20 00:37:45;;;;;;;1148.78;931.15;;;16.60;99.90;;;;;;4905181;29;20048;-82
2023/09/20 00:40:18;;;;;;;1160.40;938.60;;;16.50;99.90;;;;;;4912355;29;20048;-82
2023/09/20 00:42:47;;;;;;;1160.97;940.80;;;16.50;99.90;;;;;;4897900;29;20063;-83
2023/09/20 00:45:14;;;;;;;1133.55;918.63;;;16.50;99.90;;;;;;4887386;29;20489;-82
2023/09/20 00:47:43;;;;;;;1136.82;937.60;;;16.50;99.90;;;;;;4898537;29;20154;-82
2023/09/20 00:50:13;;;;;;;1156.07;929.25;;;16.50;99.90;;;;;;4895335;29;20052;-83
2023/09/20 00:52:41;;;;;;;1156.85;926.38;;;16.60;99.90;;;;;;4894990;29;20079;-82
2023/09/20 00:55:15;;;;;;;1077.45;921.30;;;16.60;99.90;;;;;;4879074;29;20041;-82
2023/09/20 00:57:51;;;;;;;1086.72;920.15;;;16.50;99.90;;;;;;4898746;29;20385;-82
2023/09/20 01:00:27;;;;;;;1162.57;935.85;;;16.50;99.90;;;;;;4895619;29;20047;-82
2023/09/20 01:02:54;;;;;;;1150.25;934.33;;;16.50;99.90;;;;;;4901534;29;20048;-82
2023/09/20 01:05:21;;;;;;;1138.97;934.03;;;16.50;99.90;;;;;;4911816;29;20048;-82
2023/09/20 01:07:51;;;;;;;1042.60;892.00;;;16.60;99.90;;;;;;4891223;29;20048;-82
2023/09/20 01:10:23;;;;;;;1060.43;891.58;;;16.50;99.90;;;;;;4909185;29;20068;-82
2023/09/20 01:12:54;;;;;;;1108.28;923.45;;;16.50;99.90;;;;;;4910550;29;20412;-82
2023/09/20 01:15:21;;;;;;;1137.88;925.72;;;16.50;99.90;;;;;;4883295;29;20489;-82
2023/09/20 01:17:48;;;;;;;1147.78;929.63;;;16.60;99.90;;;;;;4894464;29;20060;-82
2023/09/20 01:20:20;;;;;;;1129.13;922.65;;;16.50;99.90;;;;;;4895353;29;20044;-82
2023/09/20 01:22:54;;;;;;;1055.40;906.20;;;16.60;99.90;;;;;;4892091;29;20485;-82
2023/09/20 01:25:38;;;;;;;1062.85;909.35;;;16.60;99.90;;;;;;4896005;29;20037;-82
2023/09/20 01:28:06;;;;;;;1065.55;907.15;;;16.60;99.90;;;;;;4906803;29;20572;-81
2023/09/20 01:30:34;;;;;;;1141.50;935.97;;;16.60;99.90;;;;;;4911545;29;20052;-82
2023/09/20 01:33:12;;;;;;;1096.47;926.80;;;16.60;99.90;;;;;;4909867;29;20075;-82
2023/09/20 01:35:39;;;;;;;1124.15;923.67;;;16.60;99.90;;;;;;4894373;29;20051;-82
2023/09/20 01:38:06;;;;;;;1147.18;935.00;;;16.60;99.90;;;;;;4911039;29;20471;-82
2023/09/20 01:40:35;;;;;;;1103.45;926.05;;;16.60;99.90;;;;;;4891245;29;20457;-81
2023/09/20 01:43:06;;;;;;;1087.90;921.58;;;16.60;99.90;;;;;;4911030;29;20043;-82
2023/09/20 01:45:34;;;;;;;992.15;883.42;;;16.60;99.90;;;;;;4912178;29;20048;-82
2023/09/20 01:48:06;;;;;;;1011.38;888.42;;;16.60;99.90;;;;;;4881711;29;20485;-82
2023/09/20 01:50:32;;;;;;;1039.87;899.40;;;16.60;99.90;;;;;;4892615;29;20556;-82
2023/09/20 01:53:01;;;;;;;1047.63;906.00;;;16.60;99.90;;;;;;4912340;29;20288;-82
2023/09/20 01:55:29;;;;;;;952.47;849.55;;;16.70;99.90;;;;;;4909608;29;20469;-82
2023/09/20 01:57:56;;;;;;;1032.47;893.58;;;16.60;99.90;;;;;;4910171;29;20048;-82
2023/09/20 02:00:28;;;;;;;979.60;873.17;;;16.60;99.90;;;;;;4911047;29;20453;-81
2023/09/20 02:02:57;;;;;;;940.78;843.20;;;16.60;99.90;;;;;;4909190;29;20449;-81
2023/09/20 02:05:24;;;;;;;927.97;831.45;;;16.70;99.90;;;;;;4910417;29;20055;-82
2023/09/20 02:07:52;;;;;;;971.30;865.58;;;16.70;99.90;;;;;;4910390;29;20083;-82
2023/09/20 02:10:18;;;;;;;970.00;864.78;;;16.70;99.90;;;;;;4893611;29;20040;-82
2023/09/20 02:12:53;;;;;;;976.40;868.30;;;16.70;99.90;;;;;;4909866;29;20059;-82
2023/09/20 02:15:20;;;;;;;962.80;858.90;;;16.70;99.90;;;;;;4891124;29;20548;-82
2023/09/20 02:17:46;;;;;;;953.15;849.88;;;16.70;99.90;;;;;;4901278;29;20060;-82
2023/09/20 02:20:19;;;;;;;946.88;845.90;;;16.80;99.90;;;;;;4910125;29;20051;-82
2023/09/20 02:22:48;;;;;;;944.55;844.55;;;16.80;99.90;;;;;;4910199;29;20052;-81
2023/09/20 02:25:14;;;;;;;929.47;833.60;;;16.70;99.90;;;;;;4908970;29;20044;-82
2023/09/20 02:27:42;;;;;;;855.72;771.15;;;16.80;99.90;;;;;;4905770;29;20064;-81
2023/09/20 02:30:15;;;;;;;900.45;806.28;;;16.80;99.90;;;;;;4878575;29;20516;-82
2023/09/20 02:32:44;;;;;;;851.53;767.03;;;16.80;99.90;;;;;;4903534;29;20134;-81
2023/09/20 02:35:10;;;;;;;883.60;794.28;;;16.80;99.90;;;;;;4909893;29;20445;-82
2023/09/20 02:37:37;;;;;;;922.35;824.45;;;16.80;99.90;;;;;;4891385;29;20045;-81
2023/09/20 02:40:17;;;;;;;938.83;840.67;;;16.80;99.90;;;;;;4910455;29;20547;-82
2023/09/20 02:43:00;;;;;;;922.20;825.10;;;16.80;99.90;;;;;;4909019;29;20119;-81
2023/09/20 02:45:29;;;;;;;948.55;846.05;;;16.80;99.90;;;;;;4893379;29;20401;-82
2023/09/20 02:47:55;;;;;;;955.00;849.83;;;16.90;99.90;;;;;;4893543;29;20040;-82
2023/09/20 02:50:25;;;;;;;823.00;742.25;;;16.90;99.90;;;;;;4909667;29;20100;-82
2023/09/20 02:52:52;;;;;;;915.03;819.60;;;16.90;99.90;;;;;;4896855;29;20055;-82
2023/09/20 02:55:21;;;;;;;960.53;855.75;;;16.90;99.90;;;;;;4909551;29;20131;-81
2023/09/20 02:57:54;;;;;;;861.53;773.78;;;16.90;99.90;;;;;;4909267;29;20088;-81
2023/09/20 03:00:27;;;;;;;773.63;702.63;;;16.90;99.90;;;;;;4908320;29;20059;-82
2023/09/20 03:02:54;;;;;;;;;;;16.90;99.90;;;;;;4890543;29;20055;-82
2023/09/20 03:05:24;;;;;;;982.13;874.70;;;16.90;99.90;;;;;;4889858;29;19999;-81
2023/09/20 03:07:51;;;;;;;1015.97;886.13;;;16.90;99.90;;;;;;4890541;29;20084;-82
2023/09/20 03:10:21;;;;;;;989.97;872.90;;;16.90;99.90;;;;;;4906941;29;20493;-82
2023/09/20 03:12:51;;;;;;;905.58;811.38;;;16.90;99.90;;;;;;4889568;29;20049;-81
2023/09/20 03:15:22;;;;;;;948.53;846.53;;;16.90;99.90;;;;;;4895907;29;20036;-82
2023/09/20 03:17:50;;;;;;;806.45;728.92;;;16.90;99.90;;;;;;4889381;29;20437;-82
2023/09/20 03:20:22;;;;;;;794.72;718.97;;;16.90;99.90;;;;;;4907907;29;20134;-82
2023/09/20 03:22:51;;;;;;;782.85;707.25;;;16.90;99.90;;;;;;4889668;29;20048;-82
2023/09/20 03:25:19;;;;;;;824.15;743.00;;;16.90;99.90;;;;;;4909573;29;20046;-81
2023/09/20 03:27:46;;;;;;;753.92;684.20;;;16.90;99.90;;;;;;4888057;29;20057;-81
2023/09/20 03:30:13;;;;;;;760.65;689.80;;;16.90;99.90;;;;;;4925387;29;20051;-81
2023/09/20 03:32:42;;;;;;;774.95;703.13;;;16.90;99.90;;;;;;4890416;29;20059;-82
2023/09/20 03:35:10;;;;;;;846.75;763.30;;;16.90;99.90;;;;;;4909197;29;20613;-81
2023/09/20 03:37:40;;;;;;;833.75;751.72;;;16.90;99.90;;;;;;4891384;29;20078;-81
2023/09/20 03:40:17;;;;;;;903.85;807.67;;;16.90;99.90;;;;;;4890853;29;20056;-81
2023/09/20 03:42:48;;;;;;;811.17;732.33;;;16.90;99.90;;;;;;4904908;29;20405;-81
2023/09/20 03:45:15;;;;;;;859.97;772.15;;;16.90;99.90;;;;;;4893937;29;20055;-81
2023/09/20 03:47:41;;;;;;;909.05;814.33;;;17.00;99.90;;;;;;4888619;29;20117;-81
2023/09/20 03:50:09;;;;;;;833.22;751.55;;;16.90;99.90;;;;;;4886500;29;20404;-81
2023/09/20 03:52:36;;;;;;;807.00;729.75;;;16.90;99.90;;;;;;4890138;29;20058;-82
2023/09/20 03:55:03;;;;;;;852.45;767.08;;;16.90;99.90;;;;;;4901606;29;20096;-81
2023/09/20 03:57:29;;;;;;;825.53;740.80;;;16.90;99.90;;;;;;4908277;29;20449;-81
2023/09/20 03:59:57;;;;;;;799.83;720.83;;;16.90;99.90;;;;;;4890158;29;20509;-82
2023/09/20 04:02:24;;;;;;;826.80;743.95;;;16.90;99.90;;;;;;4889383;29;20052;-81
2023/09/20 04:05:05;;;;;;;862.90;776.25;;;16.90;99.90;;;;;;4906587;29;20051;-81
2023/09/20 04:07:31;;;;;;;830.13;747.35;;;16.90;99.90;;;;;;4899186;29;20584;-81
2023/09/20 04:09:57;;;;;;;782.15;708.90;;;16.90;99.90;;;;;;4890310;29;20104;-81
2023/09/20 04:12:23;;;;;;;801.28;724.85;;;16.90;99.90;;;;;;4896605;29;20122;-82
2023/09/20 04:14:51;;;;;;;803.13;724.58;;;16.90;99.90;;;;;;4899837;29;20488;-81
2023/09/20 04:17:17;;;;;;;882.75;792.45;;;16.90;99.90;;;;;;4892124;29;20060;-80
2023/09/20 04:19:43;;;;;;;835.08;750.97;;;16.80;99.90;;;;;;4898803;29;20151;-81
2023/09/20 04:22:10;;;;;;;797.10;719.05;;;16.80;99.90;;;;;;4912334;29;20054;-80
2023/09/20 04:24:36;;;;;;;787.47;710.15;;;16.80;99.90;;;;;;4887064;29;20040;-81
2023/09/20 04:27:02;;;;;;;849.83;764.30;;;16.80;99.90;;;;;;4893089;29;20135;-81
2023/09/20 04:29:37;;;;;;;944.72;841.38;;;16.80;99.90;;;;;;4907447;29;20048;-81
2023/09/20 04:32:04;;;;;;;944.63;840.15;;;16.80;99.90;;;;;;4909998;29;20048;-81
2023/09/20 04:34:30;;;;;;;893.28;798.55;;;16.80;99.90;;;;;;4926096;29;20866;-80
2023/09/20 04:36:56;;;;;;;847.38;759.58;;;16.60;99.90;;;;;;4890673;29;20059;-81
2023/09/20 04:39:25;;;;;;;854.53;767.55;;;16.80;99.90;;;;;;4891642;29;20519;-81
2023/09/20 04:41:53;;;;;;;919.50;818.42;;;16.70;99.90;;;;;;4891247;29;20519;-81
2023/09/20 04:44:20;;;;;;;836.22;748.10;;;16.70;99.90;;;;;;4904526;29;20041;-81
2023/09/20 04:46:47;;;;;;;900.67;802.70;;;16.70;99.90;;;;;;4902307;29;20055;-81
2023/09/20 04:49:14;;;;;;;930.28;827.65;;;16.60;99.90;;;;;;4890764;29;20051;-81
2023/09/20 04:51:42;;;;;;;905.92;807.95;;;16.50;99.90;;;;;;4886573;29;20074;-81
2023/09/20 04:54:08;;;;;;;915.35;814.70;;;16.40;99.90;;;;;;4893693;29;20036;-81
2023/09/20 04:56:36;;;;;;;906.75;809.20;;;16.40;99.90;;;;;;4904329;29;20062;-81
2023/09/20 04:59:04;;;;;;;925.38;823.70;;;16.30;99.90;;;;;;4895391;29;20043;-81
2023/09/20 05:01:30;;;;;;;941.90;837.80;;;16.30;99.90;;;;;;4886395;29;20045;-81
2023/09/20 05:03:55;;;;;;;1000.33;877.70;;;16.20;99.90;;;;;;4909639;29;20040;-81
2023/09/20 05:06:22;;;;;;;1007.60;873.97;;;16.20;99.90;;;;;;4901384;29;20044;-81
2023/09/20 05:08:50;;;;;;;970.65;862.97;;;16.10;99.90;;;;;;4897885;29;20044;-82
2023/09/20 05:11:16;;;;;;;947.55;846.22;;;16.10;99.90;;;;;;4901104;29;20097;-81
2023/09/20 05:13:41;;;;;;;959.60;855.88;;;16.10;99.90;;;;;;4908891;29;20054;-81
2023/09/20 05:16:08;;;;;;;1048.72;895.97;;;16.10;99.90;;;;;;4886876;29;20409;-82
2023/09/20 05:18:34;;;;;;;1003.53;882.10;;;16.10;99.90;;;;;;4909162;29;20082;-82
2023/09/20 05:21:00;;;;;;;1020.72;890.42;;;16.10;99.90;;;;;;4895353;29;20047;-81
2023/09/20 05:23:26;;;;;;;965.67;860.42;;;16.00;99.90;;;;;;4903754;29;20059;-81
2023/09/20 05:25:52;;;;;;;968.40;862.33;;;16.00;99.90;;;;;;4904837;29;20450;-81
2023/09/20 05:28:18;;;;;;;991.47;880.35;;;16.00;99.90;;;;;;4901220;29;20443;-81
2023/09/20 05:30:46;;;;;;;951.50;850.03;;;16.10;99.90;;;;;;4892211;29;20127;-81
2023/09/20 05:33:12;;;;;;;944.70;844.78;;;16.10;99.90;;;;;;4894212;29;20044;-81
2023/09/20 05:35:41;;;;;;;1026.53;905.97;;;16.10;99.90;;;;;;4891884;29;20116;-81
2023/09/20 05:38:07;;;;;;;986.58;877.95;;;16.20;99.90;;;;;;4909834;29;20040;-81
2023/09/20 05:40:34;;;;;;;957.60;854.10;;;16.20;99.90;;;;;;4908358;29;20055;-81
2023/09/20 05:43:01;;;;;;;922.78;827.03;;;16.20;99.90;;;;;;4894163;29;20112;-81
2023/09/20 05:45:26;;;;;;;992.00;876.28;;;16.20;99.90;;;;;;4891156;29;20439;-81
2023/09/20 05:47:54;;;;;;;975.70;868.13;;;16.20;99.90;;;;;;4910658;29;20508;-81
2023/09/20 05:50:33;;;;;;;1019.05;890.97;;;16.30;99.90;;;;;;4911194;29;20052;-81
2023/09/20 05:52:59;;;;;;;967.83;861.60;;;16.30;99.90;;;;;;4884294;29;20044;-81
2023/09/20 05:55:26;;;;;;;996.08;876.47;;;16.40;99.90;;;;;;4921201;29;20765;-81
2023/09/20 05:57:54;;;;;;;984.60;865.47;;;16.40;99.90;;;;;;4888963;29;20099;-82
2023/09/20 06:00:23;;;;;;;948.35;846.50;;;16.40;99.90;;;;;;4909123;29;20396;-80
2023/09/20 06:02:52;;;;;;;948.05;844.50;;;16.40;99.90;;;;;;4910882;29;20058;-81
2023/09/20 06:05:24;;;;;;;936.72;834.88;;;16.40;99.90;;;;;;4908065;29;20040;-81
2023/09/20 06:07:51;;;;;;;969.10;862.17;;;16.30;99.90;;;;;;4888425;29;20115;-81
2023/09/20 06:10:18;;;;;;;983.38;874.78;;;16.40;99.90;;;;;;4880099;29;20068;-81
2023/09/20 06:12:45;;;;;;;963.50;857.17;;;16.30;99.90;;;;;;4910186;29;20424;-81
2023/09/20 06:15:15;;;;;;;956.78;851.67;;;16.30;99.90;;;;;;4894353;29;20040;-81
2023/09/20 06:17:47;;;;;;;942.78;840.33;;;16.40;99.90;;;;;;4892232;29;20048;-81
2023/09/20 06:20:19;;;;;;;1052.93;897.85;;;16.40;99.90;;;;;;4893418;29;20055;-81
2023/09/20 06:22:56;;;;;;;933.72;833.45;;;16.30;99.90;;;;;;4893352;29;20040;-79
2023/09/20 06:25:22;;;;;;;925.50;826.35;;;16.40;99.90;;;;;;4898867;29;20048;-85
2023/09/20 06:27:55;;;;;;;921.05;822.92;;;16.40;99.90;;;;;;4905731;29;20108;-82
2023/09/20 06:30:21;;;;;;;;;;;16.40;99.90;;;;;;4887264;29;20040;-80
2023/09/20 06:32:47;;;;;;;961.22;855.08;;;16.40;99.90;;;;;;4903867;29;19931;-80
2023/09/20 06:35:20;;;;;;;966.45;860.55;;;16.40;99.90;;;;;;4910579;29;20036;-81
2023/09/20 06:37:49;;;;;;;937.87;838.70;;;16.40;99.90;;;;;;4908371;29;20108;-80
2023/09/20 06:40:26;;;;;;;950.75;848.60;;;16.40;99.90;;;;;;4901878;29;20292;-81
2023/09/20 06:42:52;;;;;;;944.20;840.97;;;16.40;99.90;;;;;;4889208;29;20050;-81
2023/09/20 06:45:22;;;;;;;932.67;832.40;;;16.50;99.90;;;;;;4881464;29;20112;-81
2023/09/20 06:47:48;;;;;;;1012.63;884.05;;;16.50;99.90;;;;;;4891338;29;20288;-81
2023/09/20 06:50:15;;;;;;;934.40;833.55;;;16.50;99.90;;;;;;4889283;29;20377;-81
2023/09/20 06:52:44;;;;;;;1006.25;879.60;;;16.50;99.90;;;;;;4902704;29;20059;-81
2023/09/20 06:55:13;;;;;;;974.08;866.05;;;16.50;99.90;;;;;;4905087;29;20499;-81
2023/09/20 06:57:40;;;;;;;985.92;867.97;;;16.60;99.90;;;;;;4893817;29;20054;-80
2023/09/20 07:00:15;;;;;;;970.13;861.67;;;16.60;99.90;;;;;;4907772;29;20044;-80
2023/09/20 07:02:41;;;;;;;976.95;854.80;;;16.70;99.90;;;;;;4903542;29;20567;-81
2023/09/20 07:05:07;;;;;;;935.40;834.15;;;16.70;99.90;;;;;;4909026;29;20111;-82
2023/09/20 07:07:32;;;;;;;986.15;872.95;;;16.70;99.90;;;;;;4889139;29;20052;-84
2023/09/20 07:10:00;;;;;;;994.15;867.28;;;16.70;99.90;;;;;;4907772;29;20104;-84
2023/09/20 07:12:26;;;;;;;965.45;859.30;;;16.70;99.90;;;;;;4907161;29;20400;-83
2023/09/20 07:14:52;;;;;;;936.20;832.83;;;16.70;99.90;;;;;;4896809;29;20055;-84
2023/09/20 07:17:17;;;;;;;981.92;859.10;;;16.70;99.90;;;;;;4909277;29;20060;-83
2023/09/20 07:19:47;;;;;;;960.08;849.47;;;16.70;99.90;;;;;;4876941;29;20048;-83
2023/09/20 07:22:13;;;;;;;898.42;803.92;;;16.90;99.90;;;;;;4893809;29;20111;-86
2023/09/20 07:24:39;;;;;;;888.97;795.08;;;16.90;99.90;;;;;;4883070;29;20103;-85
2023/09/20 07:27:06;;;;;;;835.92;751.20;;;17.00;99.90;;;;;;4900062;29;20052;-84
2023/09/20 07:29:39;;;;;;;853.20;765.20;;;17.10;99.90;;;;;;4892090;29;20041;-83
2023/09/20 07:32:05;;;;;;;879.58;788.00;;;17.10;99.90;;;;;;4899519;29;20056;-84
2023/09/20 07:34:32;;;;;;;945.15;833.10;;;17.20;99.90;;;;;;4890625;29;20060;-85
2023/09/20 07:36:59;;;;;;;930.25;822.95;;;17.30;99.90;;;;;;4891838;29;20064;-84
2023/09/20 07:39:25;;;;;;;904.00;808.67;;;17.30;99.90;;;;;;4896339;29;20047;-83
2023/09/20 07:41:51;;;;;;;917.65;812.70;;;17.40;99.90;;;;;;4895187;29;20052;-83
2023/09/20 07:44:17;;;;;;;1012.38;848.22;;;17.40;99.90;;;;;;4896642;29;20130;-84
2023/09/20 07:46:43;;;;;;;921.50;821.70;;;17.50;99.90;;;;;;4892500;29;20497;-84
2023/09/20 07:49:10;;;;;;;993.22;831.22;;;17.60;99.90;;;;;;4894011;29;20163;-85
2023/09/20 07:51:39;;;;;;;959.85;820.30;;;17.60;99.90;;;;;;4912663;29;20050;-85
2023/09/20 07:54:09;;;;;;;1136.50;865.78;;;17.60;99.90;;;;;;4895123;29;20048;-85
2023/09/20 07:56:34;;;;;;;1041.30;807.30;;;17.60;99.90;;;;;;4910576;29;20387;-84
2023/09/20 07:59:03;;;;;;;1045.80;822.50;;;17.60;99.90;;;;;;4894321;29;20084;-84
2023/09/20 08:01:30;;;;;;;1058.28;807.45;;;17.10;99.90;;;;;;4895556;29;20111;-84
2023/09/20 08:03:59;;;;;;;1101.43;834.08;;;17.70;99.90;;;;;;4894837;29;20119;-84
2023/09/20 08:06:28;;;;;;;952.65;803.38;;;17.70;99.90;;;;;;4895819;29;20048;-83
2023/09/20 08:08:55;;;;;;;1005.55;819.17;;;17.80;99.90;;;;;;4895345;29;20036;-84
2023/09/20 08:11:21;;;;;;;1002.42;781.70;;;18.00;99.90;;;;;;4896752;29;20064;-85
2023/09/20 08:13:49;;;;;;;1061.50;812.47;;;18.00;99.90;;;;;;4891541;29;20051;-84
2023/09/20 08:16:15;;;;;;;1111.97;819.50;;;18.10;99.90;;;;;;4905395;29;20048;-84
2023/09/20 08:21:26;;;;;;;1029.03;772.75;;;18.00;99.90;;;;;;4908118;29;20420;-84
2023/09/20 08:59:54;;;;;;;1185.72;854.05;;;18.50;99.90;;;;;;4912008;29;20130;-84
2023/09/20 09:02:24;;;;;;;1103.78;809.60;;;18.40;99.90;;;;;;4895511;29;20130;-84
2023/09/20 09:04:54;;;;;;;1038.28;797.85;;;18.40;99.90;;;;;;4895586;29;20055;-84
2023/09/20 09:07:23;;;;;;;1240.35;862.28;;;18.40;99.90;;;;;;4892537;29;20497;-84
2023/09/20 09:09:53;;;;;;;1115.18;824.13;;;18.40;99.90;;;;;;4889384;29;20468;-84
2023/09/20 09:12:19;;;;;;;1212.95;854.80;;;18.30;99.90;;;;;;4910859;29;20055;-84
2023/09/20 09:14:48;;;;;;;1141.55;832.67;;;18.30;99.90;;;;;;4896333;29;20389;-84
2023/09/20 09:17:14;;;;;;;1180.20;851.38;;;18.20;99.90;;;;;;4895793;29;20715;-85
2023/09/20 09:19:40;;;;;;;1133.80;829.90;;;18.30;99.90;;;;;;4896070;29;20435;-84
2023/09/20 09:22:07;;;;;;;1128.25;824.95;;;18.20;99.90;;;;;;4912081;29;20126;-83
2023/09/20 09:24:49;;;;;;;1031.95;775.40;;;18.30;99.90;;;;;;4886718;29;20493;-83
2023/09/20 09:27:18;;;;;;;1179.47;842.80;;;18.20;99.90;;;;;;4906842;29;20048;-81
2023/09/20 09:29:44;;;;;;;1102.25;820.13;;;18.20;99.90;;;;;;4907012;29;20103;-84
2023/09/20 09:32:10;;;;;;;1165.03;828.28;;;18.30;99.90;;;;;;4889666;29;20041;-85
2023/09/20 09:34:41;;;;;;;1104.55;820.45;;;18.20;99.90;;;;;;4890957;29;20123;-84
2023/09/20 09:37:10;;;;;;;1102.10;804.40;;;18.20;99.90;;;;;;4898976;29;20127;-84
2023/09/20 09:39:36;;;;;;;1059.72;799.08;;;18.20;99.90;;;;;;4906853;29;20051;-84
2023/09/20 09:42:02;;;;;;;1148.15;825.28;;;18.20;99.90;;;;;;4908583;29;20048;-83
2023/09/20 09:44:28;;;;;;;1139.38;818.50;;;18.30;99.90;;;;;;4890290;29;20123;-83
2023/09/20 09:46:54;;;;;;;1153.88;827.78;;;18.30;99.90;;;;;;4880823;29;20466;-84
2023/09/20 09:49:20;;;;;;;1090.18;806.42;;;18.30;99.90;;;;;;4888499;29;20048;-84
2023/09/20 09:51:52;;;;;;;1070.80;808.92;;;18.40;99.90;;;;;;4889570;29;20052;-84
2023/09/20 09:54:20;;;;;;;1095.40;819.30;;;18.40;99.90;;;;;;4905072;29;20041;-83
2023/09/20 09:56:46;;;;;;;1057.80;771.38;;;18.50;99.90;;;;;;4901301;29;20068;-83
2023/09/20 09:59:12;;;;;;;1047.10;788.03;;;18.50;99.90;;;;;;4889800;29;20155;-83
2023/09/20 10:01:40;;;;;;;1016.28;778.33;;;18.50;99.90;;;;;;4901114;29;20135;-86
2023/09/20 10:04:17;;;;;;;1132.65;820.42;;;18.50;99.90;;;;;;4881710;29;20063;-84
2023/09/20 10:06:53;;;;;;;1072.45;815.17;;;18.60;99.90;;;;;;4889350;29;20049;-84
2023/09/20 10:09:24;;;;;;;1027.03;800.67;;;18.60;99.90;;;;;;4888321;29;20127;-84
2023/09/20 10:11:51;;;;;;;1116.07;825.25;;;18.70;99.90;;;;;;4889387;29;20391;-83
2023/09/20 10:14:22;;;;;;;1062.60;797.05;;;18.80;99.90;;;;;;4888994;29;20048;-83
2023/09/20 10:16:49;;;;;;;1008.03;796.65;;;18.80;99.90;;;;;;4891154;29;20048;-84
2023/09/20 10:19:15;;;;;;;956.50;777.80;;;18.90;99.90;;;;;;4857741;29;20059;-84
2023/09/20 10:22:21;;;;;;;1002.55;828.90;;;19.00;99.90;;;;;;4872924;29;20044;-84
2023/09/20 10:24:55;;;;;;;905.17;790.95;;;19.00;99.90;;;;;;4808077;29;20190;-84
2023/09/20 10:27:22;;;;;;;995.05;828.33;;;19.00;99.90;;;;;;4816747;29;20605;-86
2023/09/20 10:30:14;;;;;;;951.35;785.97;;;19.00;99.90;;;;;;4823089;29;20148;-83
2023/09/20 10:32:53;;;;;;;938.53;812.90;;;19.10;99.90;;;;;;4849861;29;20399;-84
2023/09/20 10:35:27;;;;;;;1079.18;790.67;;;19.00;99.90;;;;;;4859353;29;20060;-85
2023/09/20 10:38:07;;;;;;;1028.20;830.15;;;19.10;99.90;;;;;;4867628;29;20056;-83
2023/09/20 10:40:49;;;;;;;1007.33;839.47;;;19.10;99.90;;;;;;4860280;29;20642;-84
2023/09/20 10:43:18;;;;;;;1017.47;870.42;;;19.10;99.90;;;;;;4861629;29;20092;-84
2023/09/20 10:45:50;;;;;;;957.97;815.97;;;19.10;99.90;;;;;;4872300;29;20485;-85
2023/09/20 10:48:23;;;;;;;1021.00;878.70;;;19.10;99.90;;;;;;4861819;29;20405;-86
2023/09/20 10:50:50;;;;;;;1079.32;843.05;;;19.10;99.90;;;;;;4852490;29;20647;-84
2023/09/20 10:53:22;;;;;;;1043.35;806.10;;;19.10;99.90;;;;;;4870890;29;20053;-84
2023/09/20 10:55:49;;;;;;;1134.13;844.50;;;19.10;99.90;;;;;;4844869;29;20060;-85
2023/09/20 10:58:19;;;;;;;969.78;806.08;;;19.20;99.90;;;;;;4859158;29;20071;-85
2023/09/20 11:00:45;;;;;;;1045.18;829.03;;;19.20;99.90;;;;;;4859008;29;20091;-85
2023/09/20 11:03:11;;;;;;;1083.57;852.33;;;19.20;99.90;;;;;;4848489;29;20474;-85
2023/09/20 11:05:38;;;;;;;954.08;846.95;;;19.20;99.90;;;;;;4871635;29;20052;-85
2023/09/20 11:08:10;;;;;;;964.53;855.63;;;19.30;99.90;;;;;;4858254;29;20594;-84
2023/09/20 11:10:39;;;;;;;980.80;875.47;;;19.20;99.90;;;;;;4857265;29;20048;-84
2023/09/20 11:13:08;;;;;;;972.38;842.40;;;19.20;99.90;;;;;;4870718;29;20420;-85
2023/09/20 11:15:41;;;;;;;998.08;856.05;;;19.20;99.90;;;;;;4841261;29;20084;-85
2023/09/20 11:18:17;;;;;;;979.78;824.25;;;19.20;99.90;;;;;;4882821;29;20068;-83
2023/09/20 11:20:44;;;;;;;1075.03;856.63;;;19.20;99.90;;;;;;4907805;29;20497;-84
2023/09/20 11:23:10;;;;;;;1007.20;837.28;;;19.10;99.90;;;;;;4887316;29;20045;-86
2023/09/20 11:25:38;;;;;;;1062.72;848.13;;;19.10;99.90;;;;;;4889966;29;20051;-84
2023/09/20 11:28:07;;;;;;;1060.88;847.65;;;19.10;99.90;;;;;;4905116;29;20048;-85
2023/09/20 11:30:34;;;;;;;1196.57;882.25;;;18.80;99.90;;;;;;4901078;29;20052;-85
2023/09/20 11:33:01;;;;;;;1006.75;766.75;;;19.00;99.90;;;;;;4878743;29;20044;-85
2023/09/20 11:35:34;;;;;;;1087.88;842.20;;;19.10;99.90;;;;;;4884214;29;20139;-86
2023/09/20 11:38:26;;;;;;;1097.28;854.33;;;19.10;99.90;;;;;;4884867;29;20143;-84
2023/09/20 11:40:52;;;;;;;955.28;769.45;;;19.10;99.90;;;;;;4899223;29;20056;-85
2023/09/20 11:43:20;;;;;;;1083.10;859.85;;;19.10;99.90;;;;;;4883699;29;20075;-84
2023/09/20 11:45:53;;;;;;;943.25;804.33;;;19.10;99.90;;;;;;4872982;29;20127;-85
2023/09/20 11:48:22;;;;;;;1080.88;832.88;;;19.20;99.90;;;;;;4886651;29;20761;-84
2023/09/20 11:50:50;;;;;;;1012.28;790.47;;;19.20;99.90;;;;;;4902756;29;20105;-84
2023/09/20 11:53:18;;;;;;;976.88;860.45;;;19.30;99.90;;;;;;4906242;29;20393;-86
2023/09/20 11:55:45;;;;;;;1003.15;853.45;;;19.30;99.90;;;;;;4894095;29;20170;-85
2023/09/20 11:58:36;;;;;;;964.50;843.30;;;19.40;99.90;;;;;;4872280;29;20051;-84
2023/09/20 12:01:06;;;;;;;1003.67;881.72;;;19.40;99.90;;;;;;4896633;29;20175;-84
2023/09/20 12:03:33;;;;;;;1007.40;855.88;;;19.40;99.90;;;;;;4901875;29;20063;-85
2023/09/20 12:05:58;;;;;;;1041.70;877.47;;;19.40;99.90;;;;;;4905144;29;20048;-86
2023/09/20 12:08:31;;;;;;;966.78;853.08;;;19.40;99.90;;;;;;4898156;29;20044;-85
2023/09/20 12:10:57;;;;;;;969.83;842.33;;;19.40;99.90;;;;;;4882959;29;20052;-85
2023/09/20 12:13:22;;;;;;;995.53;864.65;;;19.40;99.90;;;;;;4908832;29;20075;-85
2023/09/20 12:15:48;;;;;;;992.50;870.65;;;19.40;99.90;;;;;;4908237;29;20083;-85
2023/09/20 12:18:15;;;;;;;1019.97;857.20;;;19.40;99.90;;;;;;4908362;29;20071;-85
2023/09/20 12:20:40;;;;;;;1026.18;854.70;;;19.50;99.90;;;;;;4889725;29;20217;-85
2023/09/20 12:23:06;;;;;;;967.67;863.72;;;19.50;99.90;;;;;;4886129;29;20466;-85
2023/09/20 12:25:35;;;;;;;987.55;879.95;;;19.40;99.90;;;;;;4881949;29;20059;-85
2023/09/20 12:28:01;;;;;;;990.10;883.38;;;19.50;99.90;;;;;;4906176;29;20072;-85
2023/09/20 12:30:27;;;;;;;992.90;875.47;;;19.60;99.90;;;;;;4894736;29;20075;-85
2023/09/20 12:32:57;;;;;;;997.55;873.60;;;19.60;99.90;;;;;;4886099;29;20189;-85
2023/09/20 12:35:23;;;;;;;994.22;866.97;;;19.70;99.90;;;;;;4905035;29;20048;-85
2023/09/20 12:37:48;;;;;;;977.92;856.67;;;19.70;99.90;;;;;;4893740;29;20381;-85
2023/09/20 12:40:14;;;;;;;976.45;869.80;;;19.70;99.90;;;;;;4912509;29;20512;-85
2023/09/20 12:42:40;;;;;;;1011.15;887.80;;;19.80;99.90;;;;;;4889229;29;20423;-84
2023/09/20 12:45:07;;;;;;;1012.80;880.40;;;19.80;99.90;;;;;;4907660;29;20043;-84
2023/09/20 12:47:41;;;;;;;984.42;859.88;;;19.80;99.90;;;;;;4909486;29;20048;-84
2023/09/20 12:50:12;;;;;;;989.55;871.88;;;19.80;99.90;;;;;;4889615;29;20033;-84
2023/09/20 12:52:44;;;;;;;1009.97;885.75;;;19.80;99.90;;;;;;4898651;29;20052;-84